Weather observations for the past three days for
Sand Point
Imperial (Metric)
Date Time (akdt) Wind (mph) Vis. (mi.) Weather Sky Cond. Temperature (ºF) Relative Humidity Wind Chill (°F) Heat Index (°F) Pressure Precipitation (in)
Air Dwpt 6 hour altimeter (in) sea level (mb) 1 hr 3 hr 6 hr
Max. Min.
05 12:56 NW 18 10.00 Partly Cloudy FEW018 SCT023 SCT080 36 28 73% 26 29.97 1015.1
05 11:56 N 25 10.00 Partly Cloudy and Breezy FEW016 SCT020 SCT050 36 27 70% 25 29.95 1014.3
05 10:56 NW 26 10.00 Partly Cloudy and Windy FEW018 SCT025 SCT050 35.1 28 76% 23 29.91 1013.1
05 09:56 NW 20 10.00 Partly Cloudy FEW015 SCT025 SCT050 34 28 35.1 33.1 79% 23 29.91 1013.1
05 08:56 NW 21 10.00 Mostly Cloudy and Breezy BKN015 BKN022 BKN040 34 28 79% 23 29.89 1012.5
05 07:56 NW 18 10.00 Mostly Cloudy BKN015 BKN022 BKN040 34 28.9 82% 24 29.87 1011.6
05 06:56 N 8 G 18 10.00 Overcast OVC013 34 28.9 82% 28 29.84 1010.7
05 05:56 NW 13 10.00 Mostly Cloudy SCT013 BKN030 34 30.9 89% 26 29.82 1009.9
05 04:56 NW 14 10.00 Mostly Cloudy BKN019 35.1 30 82% 27 29.79 1008.9
05 03:56 NW 18 10.00 Partly Cloudy SCT019 35.1 30.9 37.9 35.1 85% 25 29.75 1007.7
05 02:56 NW 14 10.00 Partly Cloudy SCT021 36 30.9 82% 28 29.73 1007.0
05 01:56 NW 10 10.00 Overcast OVC075 36 32 86% 29 29.71 1006.3
05 00:56 NW 22 10.00 Fair and Breezy CLR 36 32 86% 25 29.67 1004.8
04 23:56 NW 13 10.00 Mostly Cloudy BKN070 37 32 82% 30 29.66 1004.5
04 22:56 NW 16 10.00 Overcast BKN019 BKN048 OVC060 37 32 82% 28 29.63 1003.7
04 21:56 N 18 G 24 10.00 Overcast SCT023 BKN028 OVC060 37 32 39.9 37 82% 28 29.61 1002.9
04 20:56 N 18 G 24 10.00 Mostly Cloudy FEW024 BKN085 37.9 32 79% 29 29.59 1002.2
04 19:56 N 18 10.00 Mostly Cloudy FEW017 BKN100 39 33.1 79% 30 29.57 1001.6
04 18:56 N 20 10.00 Mostly Cloudy FEW022 SCT032 BKN060 39 33.1 79% 30 29.56 1001.1
04 17:56 NW 22 10.00 Light Rain and Breezy FEW017 SCT028 BKN055 39.9 34 79% 31 29.55 1000.8
04 16:56 N 22 G 26 10.00 Partly Cloudy and Breezy FEW017 SCT028 SCT055 39.9 34 79% 31 29.54 1000.3
04 15:56 N 21 10.00 Overcast and Breezy FEW017 SCT025 OVC048 39 34 39 37 82% 30 29.53 1000.2
04 14:56 N 13 10.00 Light Rain SCT016 SCT025 OVC032 39 35.1 86% 32 29.53 1000.1
04 13:56 N 17 G 25 10.00 Light Rain FEW017 SCT025 OVC034 39 34 82% 31 29.52 999.8
04 12:56 N 18 10.00 Light Rain FEW017 BKN026 OVC045 37.9 34 86% 29 29.52 999.8
04 11:56 N 20 G 24 10.00 Light Rain FEW017 BKN024 OVC032 37 34 89% 27 29.52 1000.0
04 10:56 N 17 G 24 10.00 Light Rain FEW017 BKN024 OVC032 37.9 35.1 89% 29 29.53 1000.2
04 09:56 N 17 10.00 Light Rain FEW017 BKN020 OVC050 37.9 35.1 39 36 89% 29 29.54 1000.7
04 08:56 N 14 10.00 Light Rain FEW015 BKN020 OVC035 37.9 35.1 89% 30 29.56 1001.3
04 07:56 N 9 10.00 Light Rain FEW015 BKN020 OVC030 37.9 36 93% 32 29.58 1001.8
04 06:56 N 16 10.00 Light Rain BKN022 OVC030 37.9 35.1 89% 30 29.6 1002.4
04 05:56 N 20 10.00 Light Rain BKN025 OVC030 37.9 34 86% 29 29.63 1003.5
04 04:56 N 18 10.00 Unknown Precip FEW024 OVC038 37 34 89% 28 29.66 1004.6
04 03:56 N 16 10.00 Light Rain SCT026 OVC033 37 33.1 39 36 86% 28 29.7 1006.0
04 02:56 N 16 10.00 Overcast OVC032 37 30.9 79% 28 29.75 1007.6
04 01:56 N 20 10.00 Overcast SCT039 BKN055 OVC070 37 30.9 79% 27 29.78 1008.5
04 00:56 N 21 G 28 10.00 Overcast and Breezy SCT046 OVC060 37 30.9 79% 27 29.81 1009.8
03 23:56 N 21 G 26 10.00 Overcast and Breezy FEW070 OVC100 37.9 30.9 76% 28 29.83 1010.4
03 22:56 N 17 10.00 Mostly Cloudy BKN120 37.9 30.9 76% 29 29.85 1011.1
03 21:56 N 16 10.00 Partly Cloudy FEW095 SCT120 39 30.9 46 39 73% 31 29.86 1011.4
03 20:56 N 16 G 23 10.00 Fair CLR 41 30.9 67% 33 29.87 1011.8
03 19:56 N 15 10.00 Fair CLR 42.1 32 68% 35 29.9 1012.5
03 18:56 N 15 10.00 Partly Cloudy FEW025 FEW050 SCT100 44.1 33.1 65% 38 29.9 1012.8
03 17:56 N 14 10.00 Partly Cloudy FEW025 FEW050 SCT100 45 34 66% 39 29.92 1013.4
03 16:56 N 10 10.00 Mostly Cloudy FEW025 SCT050 BKN100 46 35.1 66% 42 29.94 1014.1
03 15:56 N 12 10.00 Partly Cloudy FEW030 SCT065 SCT075 46 35.1 46 35.1 66% 41 29.96 1014.6
03 14:56 N 10 10.00 Mostly Cloudy FEW030 SCT065 BKN075 46 36 68% 42 29.97 1015.0
03 13:56 N 13 10.00 Mostly Cloudy FEW030 SCT055 BKN065 44.1 35.1 71% 38 29.98 1015.6
03 12:56 N 8 10.00 Mostly Cloudy FEW027 SCT055 BKN065 44.1 36 73% 40 29.99 1015.9
03 11:56 N 8 10.00 Mostly Cloudy FEW025 BKN055 BKN065 43 36 76% 39 30 1016.1
03 10:56 N 10 10.00 Mostly Cloudy FEW025 BKN055 BKN065 42.1 35.1 76% 37 30 1016.1
03 09:56 N 7 10.00 Mostly Cloudy FEW023 BKN055 BKN065 39.9 36 39.9 33.1 86% 36 30.01 1016.4
03 08:56 N 3 10.00 Mostly Cloudy FEW026 BKN055 BKN065 37 36 96% 30.01 1016.4
03 07:56 Calm 10.00 Mostly Cloudy FEW020 BKN055 BKN065 34 34 100% 30.01 1016.5
03 06:56 Calm 10.00 Mostly Cloudy FEW055 BKN065 34 34 100% 30.01 1016.6
03 05:56 Calm 10.00 Fair CLR 34 33.1 97% 30.01 1016.5
03 04:56 Calm 10.00 Fair CLR 34 34 100% 30.01 1016.6
03 03:56 Calm 1.25 Fog/Mist OVC001 35.1 35.1 42.1 34 100% 30.02 1016.8
03 02:56 Calm 10.00 Partly Cloudy SCT001 35.1 35.1 100% 30.03 1017.1
03 01:56 N 3 0.25 Fog OVC001 36 35.1 97% 30.03 1017.1
03 00:56 Calm 0.75 Fog/Mist BKN001 36 35.1 97% 30.03 1017.1
02 23:56 Calm 10.00 Partly Cloudy SCT033 37.9 35.1 89% 30.03 1017.1
02 22:56 Calm 10.00 Fair CLR 39 35.1 86% 30.02 1016.7
02 21:56 Calm 10.00 Fair CLR 42.1 35.1 46 42.1 76% 30 1016.2
02 20:56 NE 9 10.00 Fair CLR 42.1 37 82% 37 29.99 1015.8
02 19:56 SE 6 10.00 Mostly Cloudy BKN041 45 32 61% 42 29.98 1015.6
02 18:56 S 8 10.00 Partly Cloudy FEW022 FEW035 SCT050 45 35.1 68% 41 29.97 1015.1
02 17:56 S 10 10.00 Partly Cloudy FEW022 FEW035 SCT050 45 36 71% 40 29.97 1014.9
02 16:56 SE 12 10.00 Partly Cloudy FEW022 FEW035 SCT050 45 37.9 77% 40 29.96 1014.9
02 15:56 SE 12 10.00 Partly Cloudy FEW022 FEW035 SCT050 44.1 37 46 41 76% 39 29.96 1014.6
02 14:56 SE 10 10.00 Partly Cloudy FEW022 FEW035 SCT050 43 37.9 82% 38 29.96 1014.7
02 13:56 SE 10 10.00 Partly Cloudy FEW022 FEW035 SCT050 44.1 37.9 79% 39 29.95 1014.6
Date Time (akdt) Wind (mph) Vis. (mi.) Weather Sky Cond. Air Dwpt Max. Min. Relative Humidity Wind Chill (°F) Heat Index (°F) altimeter (in) sea level (mb) 1 hr 3 hr 6 hr
6 hour
Temperature (ºF) Pressure Precipitation (in)